createdAt,value
2023-02-19T00:01:45.472Z,9.45
2023-02-19T00:04:13.909Z,7.05
2023-02-19T00:06:41.722Z,7.95
2023-02-19T00:09:10.831Z,7.53
2023-02-19T00:11:38.232Z,9.27
2023-02-19T00:14:05.615Z,7.72
2023-02-19T00:16:35.358Z,7.55
2023-02-19T00:19:03.852Z,7.70
2023-02-19T00:21:31.216Z,9.05
2023-02-19T00:24:01.037Z,9.73
2023-02-19T00:26:28.004Z,7.68
2023-02-19T00:28:57.533Z,7.07
2023-02-19T00:31:29.910Z,12.25
2023-02-19T00:33:59.641Z,7.47
2023-02-19T00:36:27.979Z,8.55
2023-02-19T00:38:55.434Z,8.20
2023-02-19T00:41:23.283Z,8.02
2023-02-19T00:43:57.214Z,7.13
2023-02-19T00:46:26.927Z,9.65
2023-02-19T00:48:54.508Z,8.75
2023-02-19T00:51:23.833Z,7.80
2023-02-19T00:53:50.603Z,9.32
2023-02-19T00:56:17.980Z,9.25
2023-02-19T00:58:44.913Z,11.02
2023-02-19T01:01:12.138Z,9.82
2023-02-19T01:03:39.762Z,9.73
2023-02-19T01:06:08.552Z,9.13
2023-02-19T01:08:35.688Z,10.00
2023-02-19T01:11:03.539Z,10.40
2023-02-19T01:13:30.444Z,9.45
2023-02-19T01:16:04.674Z,8.30
2023-02-19T01:18:32.189Z,10.18
2023-02-19T01:20:58.793Z,8.55
2023-02-19T01:23:25.655Z,12.18
2023-02-19T01:25:52.226Z,11.25
2023-02-19T01:28:18.828Z,11.18
2023-02-19T01:30:45.397Z,8.88
2023-02-19T01:33:11.976Z,9.32
2023-02-19T01:35:39.571Z,8.57
2023-02-19T01:38:08.342Z,9.00
2023-02-19T01:40:35.291Z,8.10
2023-02-19T01:43:03.670Z,11.07
2023-02-19T01:45:32.388Z,12.25
2023-02-19T01:48:05.261Z,9.23
2023-02-19T01:50:44.453Z,11.07
2023-02-19T01:53:13.349Z,14.00
2023-02-19T01:55:41.025Z,9.73
2023-02-19T01:58:09.197Z,8.75
2023-02-19T02:00:37.050Z,10.98
2023-02-19T02:03:04.547Z,9.07
2023-02-19T02:05:46.275Z,13.15
2023-02-19T02:08:33.581Z,9.13
2023-02-19T02:11:00.847Z,11.20
2023-02-19T02:13:27.795Z,11.63
2023-02-19T02:16:14.663Z,10.70
2023-02-19T02:19:03.863Z,11.20
2023-02-19T02:21:56.531Z,10.07
2023-02-19T02:24:56.595Z,11.00
2023-02-19T02:27:23.161Z,8.63
2023-02-19T02:30:04.734Z,15.13
2023-02-19T02:32:54.882Z,12.23
2023-02-19T02:35:31.476Z,12.00
2023-02-19T02:38:02.920Z,11.38
2023-02-19T02:40:30.009Z,9.03
2023-02-19T02:43:00.855Z,9.80
2023-02-19T02:45:34.937Z,12.02
2023-02-19T02:48:32.605Z,11.77
2023-02-19T02:51:14.410Z,9.82
2023-02-19T02:54:15.677Z,12.98
2023-02-19T02:56:44.153Z,10.85
2023-02-19T02:59:13.720Z,10.43
2023-02-19T03:02:05.900Z,10.80
2023-02-19T03:05:11.968Z,8.88
2023-02-19T03:07:54.331Z,15.02
2023-02-19T03:10:26.366Z,13.07
2023-02-19T03:13:15.501Z,10.02
2023-02-19T03:16:06.649Z,11.20
2023-02-19T03:19:03.698Z,10.18
2023-02-19T03:21:34.254Z,9.73
2023-02-19T03:24:20.038Z,18.35
2023-02-19T03:26:54.000Z,10.13
2023-02-19T03:29:25.976Z,11.50
2023-02-19T03:32:00.370Z,19.67
2023-02-19T03:34:34.808Z,12.50
2023-02-19T03:37:11.029Z,10.40
2023-02-19T03:39:44.421Z,12.65
2023-02-19T03:42:14.065Z,14.10
2023-02-19T03:45:11.322Z,8.70
2023-02-19T03:47:49.987Z,12.93
2023-02-19T03:50:36.533Z,8.05
2023-02-19T03:53:18.340Z,14.00
2023-02-19T03:56:02.065Z,13.82
2023-02-19T03:58:36.164Z,15.93
2023-02-19T04:01:15.365Z,14.88
2023-02-19T04:04:01.496Z,10.55
2023-02-19T04:06:30.395Z,15.65
2023-02-19T04:09:00.515Z,10.85
2023-02-19T04:11:29.130Z,18.25
2023-02-19T04:14:03.154Z,11.30
2023-02-19T04:16:30.910Z,7.10
2023-02-19T04:19:03.915Z,9.27
2023-02-19T04:21:32.511Z,10.88
2023-02-19T04:24:04.053Z,7.78
2023-02-19T04:26:32.479Z,9.73
2023-02-19T04:28:59.273Z,10.88
2023-02-19T04:31:28.160Z,6.40
2023-02-19T04:33:54.809Z,8.65
2023-02-19T04:36:21.375Z,10.23
2023-02-19T04:38:48.004Z,12.70
2023-02-19T04:41:14.644Z,10.63
2023-02-19T04:43:41.197Z,7.03
2023-02-19T04:46:07.878Z,11.50
2023-02-19T04:48:34.491Z,6.03
2023-02-19T04:51:05.586Z,7.78
2023-02-19T04:53:32.155Z,11.80
2023-02-19T04:56:06.435Z,8.95
2023-02-19T04:58:33.148Z,12.95
2023-02-19T05:00:59.725Z,11.07
2023-02-19T05:03:26.335Z,10.35
2023-02-19T05:05:52.908Z,9.43
2023-02-19T05:08:19.565Z,11.40
2023-02-19T05:10:46.160Z,7.40
2023-02-19T05:13:13.966Z,7.75
2023-02-19T05:15:40.621Z,7.38
2023-02-19T05:18:07.229Z,12.48
2023-02-19T05:20:33.808Z,7.82
2023-02-19T05:23:00.360Z,12.13
2023-02-19T05:25:26.961Z,9.30
2023-02-19T05:28:13.605Z,11.52
2023-02-19T05:30:40.189Z,7.65
2023-02-19T05:33:06.800Z,10.30
2023-02-19T05:35:33.367Z,9.57
2023-02-19T05:37:59.928Z,11.40
2023-02-19T05:40:26.593Z,8.90
2023-02-19T05:42:53.163Z,12.15
2023-02-19T05:45:19.785Z,9.95
2023-02-19T05:47:46.385Z,12.25
2023-02-19T05:50:12.965Z,13.23
2023-02-19T05:52:39.550Z,16.90
2023-02-19T05:55:06.509Z,16.50
2023-02-19T05:57:33.123Z,10.05
2023-02-19T05:59:59.679Z,16.63
2023-02-19T06:02:26.266Z,12.50
2023-02-19T06:04:52.894Z,12.25
2023-02-19T06:07:19.471Z,12.13
2023-02-19T06:09:46.093Z,9.77
2023-02-19T06:12:12.648Z,10.60
2023-02-19T06:14:39.217Z,16.13
2023-02-19T06:17:05.837Z,7.72
2023-02-19T06:19:32.388Z,10.27
2023-02-19T06:21:59.020Z,10.85
2023-02-19T06:24:25.623Z,7.93
2023-02-19T06:26:52.260Z,10.27
2023-02-19T06:29:18.879Z,9.30
2023-02-19T06:31:45.621Z,9.45
2023-02-19T06:34:12.351Z,5.43
2023-02-19T06:36:38.981Z,10.90
2023-02-19T06:39:06.213Z,10.93
2023-02-19T06:41:33.279Z,7.28
2023-02-19T06:43:59.896Z,8.68
2023-02-19T06:46:26.569Z,14.15
2023-02-19T06:48:53.154Z,12.65
2023-02-19T06:51:23.790Z,13.63
2023-02-19T06:53:50.582Z,11.40
2023-02-19T06:56:23.453Z,13.90
2023-02-19T06:58:50.151Z,9.35
2023-02-19T07:01:16.956Z,15.60
2023-02-19T07:03:43.624Z,7.03
2023-02-19T07:06:10.312Z,13.48
2023-02-19T07:08:36.947Z,8.23
2023-02-19T07:11:03.763Z,10.43
2023-02-19T07:13:30.528Z,17.92
2023-02-19T07:16:03.321Z,8.60
2023-02-19T07:18:31.204Z,9.35
2023-02-19T07:21:09.292Z,8.90
2023-02-19T07:23:36.473Z,10.90
2023-02-19T07:26:03.561Z,9.45
2023-02-19T07:28:30.157Z,13.00
2023-02-19T07:31:04.425Z,6.65
2023-02-19T07:33:31.209Z,11.35
2023-02-19T07:35:57.822Z,12.95
2023-02-19T07:38:25.413Z,8.63
2023-02-19T07:40:52.358Z,13.55
2023-02-19T07:43:19.379Z,14.23
2023-02-19T07:45:46.199Z,12.95
2023-02-19T07:48:13.543Z,6.80
2023-02-19T07:50:40.174Z,9.85
2023-02-19T07:53:06.738Z,13.43
2023-02-19T07:55:33.750Z,13.07
2023-02-19T07:58:00.899Z,10.57
2023-02-19T08:00:27.913Z,11.82
2023-02-19T08:03:00.577Z,11.05
2023-02-19T08:05:36.972Z,12.35
2023-02-19T08:08:06.425Z,11.95
2023-02-19T08:10:51.934Z,7.95
2023-02-19T08:13:25.464Z,7.15
2023-02-19T08:15:52.135Z,9.50
2023-02-19T08:18:21.867Z,8.38
2023-02-19T08:20:48.805Z,12.20
2023-02-19T08:23:15.490Z,10.35
2023-02-19T08:25:43.024Z,10.95
2023-02-19T08:28:11.220Z,8.02
2023-02-19T08:30:39.634Z,12.55
2023-02-19T08:33:08.119Z,9.90
2023-02-19T08:35:36.651Z,8.25
2023-02-19T08:38:06.125Z,13.38
2023-02-19T08:40:34.053Z,11.73
2023-02-19T08:43:04.605Z,7.55
2023-02-19T08:45:31.490Z,12.35
2023-02-19T08:47:58.503Z,7.50
2023-02-19T08:50:25.707Z,10.80
2023-02-19T08:52:52.624Z,12.57
2023-02-19T08:55:19.702Z,7.57
2023-02-19T08:57:46.523Z,18.75
2023-02-19T09:00:13.964Z,4.65
2023-02-19T09:02:40.541Z,13.32
2023-02-19T09:05:07.323Z,9.38
2023-02-19T09:07:33.912Z,11.43
2023-02-19T09:10:00.938Z,11.00
2023-02-19T09:12:27.663Z,8.80
2023-02-19T09:14:55.438Z,10.13
2023-02-19T09:17:22.058Z,10.23
2023-02-19T09:19:50.821Z,11.25
2023-02-19T09:22:17.579Z,8.40
2023-02-19T09:24:44.660Z,9.30
2023-02-19T09:27:19.708Z,8.75
2023-02-19T09:29:47.027Z,10.80
2023-02-19T09:32:14.282Z,9.07
2023-02-19T09:34:41.291Z,11.35
2023-02-19T09:37:08.481Z,14.27
2023-02-19T09:39:35.712Z,12.05
2023-02-19T09:42:15.407Z,8.98
2023-02-19T09:44:44.781Z,10.85
2023-02-19T09:47:23.623Z,11.40
2023-02-19T09:49:55.760Z,8.70
2023-02-19T09:52:35.477Z,12.30
2023-02-19T09:55:24.170Z,6.43
2023-02-19T09:57:51.965Z,11.13
2023-02-19T10:00:27.348Z,14.65
2023-02-19T10:03:13.327Z,10.23
2023-02-19T10:05:40.314Z,12.10
2023-02-19T10:08:15.674Z,13.15
2023-02-19T10:10:44.444Z,5.95
2023-02-19T10:13:21.954Z,9.77
2023-02-19T10:16:01.704Z,10.32
2023-02-19T10:18:38.647Z,7.18
2023-02-19T10:21:05.919Z,9.90
2023-02-19T10:23:32.769Z,9.75
2023-02-19T10:26:00.819Z,12.30
2023-02-19T10:28:31.348Z,12.10
2023-02-19T10:31:00.298Z,8.95
2023-02-19T10:33:27.510Z,10.10
2023-02-19T10:36:06.314Z,12.73
2023-02-19T10:38:37.007Z,4.25
2023-02-19T10:41:14.209Z,7.90
2023-02-19T10:43:45.729Z,9.88
2023-02-19T10:46:34.758Z,10.77
2023-02-19T10:49:05.415Z,10.10
2023-02-19T10:51:40.657Z,17.15
2023-02-19T10:54:16.392Z,7.20
2023-02-19T10:56:43.140Z,5.38
2023-02-19T10:59:24.641Z,8.10
2023-02-19T11:02:02.543Z,7.70
2023-02-19T11:04:34.177Z,13.13
2023-02-19T11:07:18.743Z,8.55
2023-02-19T11:09:49.691Z,10.63
2023-02-19T11:12:33.501Z,14.82
2023-02-19T11:15:21.151Z,6.05
2023-02-19T11:18:05.778Z,7.13
2023-02-19T11:20:32.883Z,3.80
2023-02-19T11:23:15.174Z,7.75
2023-02-19T11:25:47.446Z,8.90
2023-02-19T11:30:45.213Z,7.68
2023-02-19T11:33:19.785Z,3.90
2023-02-19T11:35:48.274Z,4.00
2023-02-19T11:38:17.793Z,4.05
2023-02-19T11:41:11.297Z,3.78
2023-02-19T11:43:53.632Z,6.18
2023-02-19T11:46:31.598Z,10.05
2023-02-19T11:49:27.543Z,8.75
2023-02-19T11:51:56.838Z,6.68
2023-02-19T11:54:59.754Z,8.07
2023-02-19T12:00:21.940Z,6.90
2023-02-19T12:03:00.285Z,5.93
2023-02-19T12:05:36.280Z,7.88
2023-02-19T12:08:10.856Z,8.10
2023-02-19T12:10:52.542Z,6.32
2023-02-19T12:13:37.054Z,2.97
2023-02-19T12:16:15.821Z,5.03
2023-02-19T12:19:22.716Z,8.20
2023-02-19T12:22:08.097Z,11.25
2023-02-19T12:25:05.837Z,7.07
2023-02-19T12:28:17.186Z,8.55
2023-02-19T12:31:03.837Z,3.50
2023-02-19T12:33:39.817Z,6.35
2023-02-19T12:36:27.269Z,5.38
2023-02-19T12:39:15.732Z,12.82
2023-02-19T12:42:02.622Z,9.98
2023-02-19T12:44:45.116Z,7.28
2023-02-19T12:49:58.607Z,7.15
2023-02-19T12:52:36.696Z,8.35
2023-02-19T12:55:25.958Z,12.57
2023-02-19T12:57:54.811Z,3.47
2023-02-19T13:00:35.643Z,6.47
2023-02-19T13:03:21.124Z,9.52
2023-02-19T13:06:04.788Z,8.57
2023-02-19T13:09:06.858Z,8.10
2023-02-19T13:11:46.994Z,7.00
2023-02-19T13:14:36.501Z,10.05
2023-02-19T13:17:18.434Z,3.38
2023-02-19T13:19:48.872Z,6.35
2023-02-19T13:22:45.238Z,5.35
2023-02-19T13:25:14.515Z,4.00
2023-02-19T13:28:20.901Z,6.05
2023-02-19T13:31:03.333Z,3.25
2023-02-19T13:36:11.380Z,6.85
2023-02-19T13:38:49.418Z,9.93
2023-02-19T13:41:32.432Z,8.32
2023-02-19T13:44:05.846Z,6.05
2023-02-19T13:46:40.656Z,9.48
2023-02-19T13:49:40.978Z,10.93
2023-02-19T13:52:28.613Z,5.22
2023-02-19T13:55:32.672Z,7.43
2023-02-19T13:58:33.489Z,5.50
2023-02-19T14:01:04.532Z,5.85
2023-02-19T14:03:46.503Z,3.95
2023-02-19T14:06:14.137Z,5.97
2023-02-19T14:08:58.469Z,3.70
2023-02-19T14:11:44.129Z,4.50
2023-02-19T14:14:24.747Z,4.88
2023-02-19T14:17:01.245Z,5.60
2023-02-19T14:19:43.004Z,6.32
2023-02-19T14:22:56.931Z,6.53
2023-02-19T14:25:29.483Z,6.72
2023-02-19T14:28:05.295Z,5.65
2023-02-19T14:30:34.810Z,3.83
2023-02-19T14:33:10.751Z,6.28
2023-02-19T14:35:42.705Z,6.25
2023-02-19T14:38:21.662Z,1.93
2023-02-19T14:40:50.624Z,8.80
2023-02-19T14:43:20.771Z,5.35
2023-02-19T14:45:56.119Z,6.90
2023-02-19T14:48:27.882Z,8.25
2023-02-19T14:51:00.487Z,6.85
2023-02-19T14:53:29.589Z,4.25
2023-02-19T14:55:58.363Z,6.85
2023-02-19T14:58:31.692Z,6.55
2023-02-19T15:00:58.450Z,4.70
2023-02-19T15:03:31.158Z,6.63
2023-02-19T15:06:19.637Z,2.40
2023-02-19T15:08:53.485Z,7.40
2023-02-19T15:11:24.972Z,10.88
2023-02-19T15:13:55.910Z,5.20
2023-02-19T15:16:25.846Z,5.72
2023-02-19T15:18:54.500Z,3.75
2023-02-19T15:21:30.619Z,9.50
2023-02-19T15:24:00.814Z,6.50
2023-02-19T15:26:43.014Z,4.68
2023-02-19T15:29:21.211Z,4.05
2023-02-19T15:31:56.177Z,6.05
2023-02-19T15:34:28.324Z,7.63
2023-02-19T15:36:59.265Z,2.28
2023-02-19T15:39:34.815Z,6.22
2023-02-19T15:42:03.848Z,3.22
2023-02-19T15:44:56.486Z,4.30
2023-02-19T15:47:33.377Z,6.40
2023-02-19T15:50:15.240Z,8.65
2023-02-19T15:52:55.284Z,5.85
2023-02-19T15:55:36.204Z,4.50
2023-02-19T15:58:30.259Z,5.68
2023-02-19T16:01:08.266Z,4.70
2023-02-19T16:03:35.910Z,3.72
2023-02-19T16:06:14.980Z,7.45
2023-02-19T16:08:47.076Z,7.30
2023-02-19T16:11:47.729Z,4.55
2023-02-19T16:14:33.612Z,7.20
2023-02-19T16:17:11.839Z,10.40
2023-02-19T16:19:50.950Z,7.13
2023-02-19T16:22:24.449Z,13.43
2023-02-19T16:25:05.520Z,9.85
2023-02-19T16:27:41.342Z,7.85
2023-02-19T16:30:30.904Z,6.30
2023-02-19T16:33:34.720Z,5.85
2023-02-19T16:36:37.985Z,6.07
2023-02-19T16:39:07.893Z,8.35
2023-02-19T16:41:56.432Z,12.48
2023-02-19T16:44:27.460Z,19.23
2023-02-19T16:47:14.072Z,18.60
2023-02-19T16:49:42.517Z,19.80
2023-02-19T16:52:14.352Z,13.45
2023-02-19T16:54:41.041Z,12.05
2023-02-19T16:57:07.631Z,12.52
2023-02-19T16:59:34.355Z,11.80
2023-02-19T17:02:04.351Z,12.40
2023-02-19T17:04:30.991Z,11.40
2023-02-19T17:06:58.198Z,11.43
2023-02-19T17:09:24.857Z,9.88
2023-02-19T17:11:51.460Z,9.40
2023-02-19T17:14:18.095Z,6.85
2023-02-19T17:16:44.726Z,10.95
2023-02-19T17:19:19.901Z,8.00
2023-02-19T17:21:47.170Z,6.05
2023-02-19T17:24:14.403Z,9.18
2023-02-19T17:26:41.442Z,9.82
2023-02-19T17:29:14.055Z,7.60
2023-02-19T17:31:40.902Z,8.48
2023-02-19T17:34:07.606Z,8.30
2023-02-19T17:36:34.500Z,6.68
2023-02-19T17:39:03.081Z,9.32
2023-02-19T17:41:29.912Z,10.88
2023-02-19T17:43:56.568Z,10.25
2023-02-19T17:46:27.685Z,7.50
2023-02-19T17:48:55.067Z,10.10
2023-02-19T17:51:22.620Z,6.45
2023-02-19T17:53:49.533Z,12.38
2023-02-19T17:56:19.705Z,9.55
2023-02-19T17:58:46.491Z,6.93
2023-02-19T18:01:14.337Z,14.07
2023-02-19T18:03:41.175Z,14.88
2023-02-19T18:06:08.501Z,17.83
2023-02-19T18:08:35.153Z,13.05
2023-02-19T18:11:01.729Z,10.65
2023-02-19T18:13:28.273Z,10.90
2023-02-19T18:15:54.895Z,10.35
2023-02-19T18:18:23.311Z,11.07
2023-02-19T18:20:50.289Z,13.15
2023-02-19T18:23:17.331Z,17.92
2023-02-19T18:25:43.955Z,14.10
2023-02-19T18:28:10.909Z,16.13
2023-02-19T18:30:37.640Z,12.07
2023-02-19T18:33:04.252Z,12.70
2023-02-19T18:35:30.924Z,18.65
2023-02-19T18:37:57.618Z,14.93
2023-02-19T18:40:28.462Z,13.80
2023-02-19T18:42:56.113Z,15.93
2023-02-19T18:45:22.733Z,14.80
2023-02-19T18:47:50.101Z,16.90
2023-02-19T18:50:17.910Z,13.13
2023-02-19T18:52:44.733Z,15.20
2023-02-19T18:55:13.263Z,13.15
2023-02-19T18:57:39.861Z,14.00
2023-02-19T19:00:07.679Z,14.18
2023-02-19T19:02:48.350Z,11.38
2023-02-19T19:05:23.451Z,17.13
2023-02-19T19:07:55.268Z,15.20
2023-02-19T19:10:22.767Z,13.48
2023-02-19T19:12:49.482Z,13.70
2023-02-19T19:15:18.467Z,18.63
2023-02-19T19:17:45.928Z,18.05
2023-02-19T19:20:12.798Z,16.48
2023-02-19T19:22:39.640Z,15.88
2023-02-19T19:25:06.647Z,12.75
2023-02-19T19:27:33.237Z,19.98
2023-02-19T19:29:59.865Z,14.00
2023-02-19T19:32:26.519Z,19.92
2023-02-19T19:34:53.086Z,16.20
2023-02-19T19:37:19.687Z,13.10
2023-02-19T19:39:46.353Z,14.82
2023-02-19T19:42:12.943Z,16.33
2023-02-19T19:44:39.710Z,20.35
2023-02-19T19:47:06.300Z,17.30
2023-02-19T19:49:33.428Z,16.60
2023-02-19T19:52:01.208Z,18.00
2023-02-19T19:54:28.735Z,16.10
2023-02-19T19:56:55.548Z,18.23
2023-02-19T19:59:23.126Z,21.33
2023-02-19T20:01:55.161Z,21.90
2023-02-19T20:04:23.688Z,17.35
2023-02-19T20:06:50.573Z,18.08
2023-02-19T20:09:18.107Z,22.08
2023-02-19T20:11:48.649Z,13.85
2023-02-19T20:14:16.585Z,21.17
2023-02-19T20:16:44.839Z,18.48
2023-02-19T20:19:12.869Z,19.42
2023-02-19T20:21:39.464Z,21.55
2023-02-19T20:24:06.397Z,20.52
2023-02-19T20:26:33.022Z,23.00
2023-02-19T20:28:59.610Z,20.48
2023-02-19T20:31:26.533Z,22.10
2023-02-19T20:33:53.266Z,25.33
2023-02-19T20:36:20.205Z,32.55
2023-02-19T20:38:49.371Z,35.20
2023-02-19T20:41:16.045Z,22.27
2023-02-19T20:43:42.638Z,25.20
2023-02-19T20:46:09.511Z,22.25
2023-02-19T20:48:36.200Z,23.65
2023-02-19T20:51:03.362Z,19.17
2023-02-19T20:53:30.743Z,22.92
2023-02-19T20:55:57.893Z,26.60
2023-02-19T20:58:25.366Z,21.20
2023-02-19T21:00:54.157Z,21.65
2023-02-19T21:03:21.467Z,18.55
2023-02-19T21:05:48.163Z,16.67
2023-02-19T21:08:17.270Z,14.70
2023-02-19T21:10:45.855Z,16.85
2023-02-19T21:13:13.056Z,16.40
2023-02-19T21:15:39.871Z,13.90
2023-02-19T21:18:06.761Z,13.80
2023-02-19T21:20:33.563Z,17.98
2023-02-19T21:23:00.796Z,13.35
2023-02-19T21:25:27.715Z,17.25
2023-02-19T21:27:54.413Z,10.40
2023-02-19T21:30:21.103Z,10.52
2023-02-19T21:32:47.716Z,15.90
2023-02-19T21:35:14.390Z,15.35
2023-02-19T21:37:44.450Z,11.27
2023-02-19T21:40:12.555Z,17.63
2023-02-19T21:42:39.325Z,13.27
2023-02-19T21:45:06.430Z,13.68
2023-02-19T21:47:33.012Z,11.30
2023-02-19T21:49:59.576Z,11.75
2023-02-19T21:52:27.027Z,16.10
2023-02-19T21:54:53.648Z,13.13
2023-02-19T21:57:20.227Z,9.55
2023-02-19T21:59:46.979Z,15.80
2023-02-19T22:02:13.674Z,15.00
2023-02-19T22:04:41.122Z,11.02
2023-02-19T22:07:07.738Z,14.98
2023-02-19T22:09:34.308Z,13.15
2023-02-19T22:12:00.864Z,15.05
2023-02-19T22:14:27.505Z,13.32
2023-02-19T22:16:54.104Z,12.43
2023-02-19T22:19:20.801Z,14.75
2023-02-19T22:21:47.558Z,17.33
2023-02-19T22:24:19.483Z,11.68
2023-02-19T22:26:46.602Z,14.68
2023-02-19T22:29:15.118Z,12.82
2023-02-19T22:31:41.838Z,13.27
2023-02-19T22:34:09.153Z,12.77
2023-02-19T22:36:39.076Z,6.00
2023-02-19T22:39:07.657Z,7.20
2023-02-19T22:41:35.046Z,8.63
2023-02-19T22:44:01.974Z,8.65
2023-02-19T22:46:30.533Z,9.27
2023-02-19T22:48:58.341Z,11.05
2023-02-19T22:51:25.451Z,11.85
2023-02-19T22:53:54.470Z,9.63
2023-02-19T22:56:23.421Z,8.77
2023-02-19T22:58:50.735Z,11.38
2023-02-19T23:01:17.458Z,10.57
2023-02-19T23:03:54.618Z,10.23
2023-02-19T23:06:27.024Z,8.60
2023-02-19T23:11:27.110Z,8.80
2023-02-19T23:16:20.785Z,7.20
2023-02-19T23:18:47.456Z,16.60
2023-02-19T23:21:14.402Z,14.27
2023-02-19T23:23:42.600Z,5.22
2023-02-19T23:26:09.971Z,11.93
2023-02-19T23:28:36.874Z,10.90
2023-02-19T23:31:03.634Z,24.15
2023-02-19T23:33:30.240Z,8.43
2023-02-19T23:35:56.827Z,10.20
2023-02-19T23:38:23.499Z,11.50
2023-02-19T23:40:50.115Z,9.13
2023-02-19T23:43:16.715Z,10.55
2023-02-19T23:45:43.436Z,16.23
2023-02-19T23:48:10.457Z,14.68
2023-02-19T23:50:37.002Z,8.20
2023-02-19T23:53:03.999Z,10.32
2023-02-19T23:55:30.547Z,14.30
2023-02-19T23:57:57.198Z,6.95
